Time;durP1;ratioP1;P1;durP2;ratioP2;P2;SDS_P1;SDS_P2;PMS_P1;PMS_P2;Temp;Humidity;BMP_temperature;BMP_pressure;BME280_temperature;BME280_humidity;BME280_pressure;Samples;Min_cycle;Max_cycle;Signal;HPM_P1;HPM_P2
2022/09/05 00:01:27;;;;;;;8.50;4.47;;;;;;;;;;4986702;28;88721;-69
2022/09/05 00:03:56;;;;;;;6.70;4.43;;;;;;;;;;4986143;28;89881;-69
2022/09/05 00:06:36;;;;;;;9.25;4.28;;;;;;;;;;4988609;28;90527;-69
2022/09/05 00:09:08;;;;;;;11.68;4.57;;;;;;;;;;4986752;28;90765;-69
2022/09/05 00:11:43;;;;;;;10.38;4.90;;;;;;;;;;4986576;28;90171;-69
2022/09/05 00:14:36;;;;;;;7.93;4.80;;;;;;;;;;4985288;28;89799;-69
2022/09/05 00:17:30;;;;;;;10.15;4.93;;;;;;;;;;4967585;28;91939;-69
2022/09/05 00:20:24;;;;;;;7.13;4.88;;;;;;;;;;4969832;28;91060;-69
2022/09/05 00:23:10;;;;;;;12.48;4.72;;;;;;;;;;4985936;28;91371;-69
2022/09/05 00:26:17;;;;;;;8.82;4.43;;;;;;;;;;4994003;27;91574;-69
2022/09/05 00:28:52;;;;;;;9.73;4.60;;;;;;;;;;5078388;27;90191;-69
2022/09/05 00:31:37;;;;;;;8.23;4.45;;;;;;;;;;5079564;27;89583;-69
2022/09/05 00:34:25;;;;;;;8.52;4.72;;;;;;;;;;5069457;27;91561;-69
2022/09/05 00:37:04;;;;;;;9.35;4.47;;;;;;;;;;5088106;27;89612;-69
2022/09/05 00:39:32;;;;;;;7.10;4.65;;;;;;;;;;5091206;27;89959;-69
2022/09/05 00:42:03;;;;;;;9.43;5.05;;;;;;;;;;5090707;27;90016;-69
2022/09/05 00:44:31;;;;;;;9.38;5.10;;;;;;;;;;5087782;27;89425;-70
2022/09/05 00:47:05;;;;;;;20.73;4.95;;;;;;;;;;5086972;27;90056;-71
2022/09/05 00:49:34;;;;;;;9.07;4.50;;;;;;;;;;5074239;27;89923;-68
2022/09/05 00:52:17;;;;;;;17.02;5.10;;;;;;;;;;5082922;27;89406;-69
2022/09/05 00:54:43;;;;;;;;;;;;;;;;;;5087720;27;89121;-69
2022/09/05 00:57:29;;;;;;;7.10;4.35;;;;;;;;;;5090196;27;118614;-69
2022/09/05 01:00:07;;;;;;;9.18;4.43;;;;;;;;;;5091148;27;90148;-69
2022/09/05 01:02:57;;;;;;;8.90;4.72;;;;;;;;;;5071205;27;89841;-70
2022/09/05 01:05:42;;;;;;;9.13;4.68;;;;;;;;;;5078397;27;89442;-69
2022/09/05 01:08:12;;;;;;;6.55;4.22;;;;;;;;;;5089045;27;90357;-70
2022/09/05 01:10:42;;;;;;;14.50;4.70;;;;;;;;;;5072849;27;89920;-69
2022/09/05 01:13:11;;;;;;;13.05;4.47;;;;;;;;;;5088283;27;89077;-69
2022/09/05 01:15:44;;;;;;;8.70;4.20;;;;;;;;;;5084736;27;89677;-69
2022/09/05 01:18:20;;;;;;;9.10;4.43;;;;;;;;;;5072985;27;89526;-69
2022/09/05 01:21:03;;;;;;;7.65;4.20;;;;;;;;;;5069955;27;89813;-69
2022/09/05 01:23:48;;;;;;;8.38;4.20;;;;;;;;;;5072126;27;89957;-69
2022/09/05 01:26:37;;;;;;;10.73;4.60;;;;;;;;;;5069833;27;89808;-70
2022/09/05 01:29:11;;;;;;;6.72;4.25;;;;;;;;;;5078595;27;91040;-71
2022/09/05 01:31:49;;;;;;;7.43;3.92;;;;;;;;;;5072013;27;90263;-71
2022/09/05 01:34:22;;;;;;;5.72;3.67;;;;;;;;;;5083705;27;88926;-70
2022/09/05 01:36:57;;;;;;;;;;;;;;;;;;5090351;27;89753;-70
2022/09/05 01:39:23;;;;;;;6.30;4.07;;;;;;;;;;5087746;27;121980;-70
2022/09/05 01:42:24;;;;;;;14.32;3.97;;;;;;;;;;5072548;27;89653;-70
2022/09/05 01:45:03;;;;;;;9.55;4.38;;;;;;;;;;5072624;27;89593;-71
2022/09/05 01:47:48;;;;;;;8.50;3.80;;;;;;;;;;5090329;27;88888;-70
2022/09/05 01:50:14;;;;;;;4.95;3.58;;;;;;;;;;5081680;27;91147;-70
2022/09/05 01:52:42;;;;;;;5.70;3.92;;;;;;;;;;5068874;27;90244;-70
2022/09/05 01:55:31;;;;;;;8.18;3.88;;;;;;;;;;5068723;27;89163;-71
2022/09/05 01:58:01;;;;;;;8.38;4.22;;;;;;;;;;5068776;27;89831;-71
2022/09/05 02:00:38;;;;;;;8.93;4.57;;;;;;;;;;5068537;27;90176;-71
2022/09/05 02:03:23;;;;;;;10.65;3.90;;;;;;;;;;5071576;27;88721;-71
2022/09/05 02:06:19;;;;;;;5.75;3.80;;;;;;;;;;5068800;27;90096;-70
2022/09/05 02:08:48;;;;;;;7.28;4.13;;;;;;;;;;5051153;27;89526;-71
2022/09/05 02:11:15;;;;;;;7.75;5.00;;;;;;;;;;5085535;27;89445;-70
2022/09/05 02:14:10;;;;;;;11.77;6.13;;;;;;;;;;5084729;27;91111;-71
2022/09/05 02:16:51;;;;;;;9.57;5.85;;;;;;;;;;5081160;27;89387;-71
2022/09/05 02:19:22;;;;;;;9.65;6.28;;;;;;;;;;5082243;27;90517;-68
2022/09/05 02:22:07;;;;;;;10.00;5.50;;;;;;;;;;5106975;27;90161;-70
2022/09/05 02:24:52;;;;;;;7.88;4.55;;;;;;;;;;5098823;27;89044;-71
2022/09/05 02:27:41;;;;;;;8.88;4.88;;;;;;;;;;5092620;27;92168;-70
2022/09/05 02:30:31;;;;;;;7.05;4.40;;;;;;;;;;5089264;27;91011;-70
2022/09/05 02:33:19;;;;;;;8.90;4.22;;;;;;;;;;5071271;27;89774;-70
2022/09/05 02:36:04;;;;;;;7.85;4.72;;;;;;;;;;5086254;27;90383;-70
2022/09/05 02:38:37;;;;;;;8.85;4.38;;;;;;;;;;5110356;27;89016;-70
2022/09/05 02:41:32;;;;;;;6.75;4.78;;;;;;;;;;5105581;27;90638;-70
2022/09/05 02:44:27;;;;;;;9.10;4.47;;;;;;;;;;5068648;27;91465;-70
2022/09/05 02:47:18;;;;;;;7.97;4.82;;;;;;;;;;5068749;27;90057;-70
2022/09/05 02:50:03;;;;;;;7.25;4.55;;;;;;;;;;5069443;27;90520;-71
2022/09/05 02:52:51;;;;;;;8.60;5.30;;;;;;;;;;5083091;27;91993;-70
2022/09/05 02:55:56;;;;;;;9.18;5.22;;;;;;;;;;5089752;27;92154;-71
2022/09/05 02:58:51;;;;;;;15.95;5.93;;;;;;;;;;5086758;27;91651;-71
2022/09/05 03:01:48;;;;;;;8.00;5.18;;;;;;;;;;5102434;27;89081;-70
2022/09/05 03:04:20;;;;;;;8.27;5.18;;;;;;;;;;5074001;27;90028;-70
2022/09/05 03:06:46;;;;;;;;;;;;;;;;;;5076984;27;89512;-70
2022/09/05 03:09:31;;;;;;;10.70;5.53;;;;;;;;;;5090062;27;118641;-70
2022/09/05 03:12:11;;;;;;;13.65;5.03;;;;;;;;;;5081388;27;90293;-71
2022/09/05 03:15:13;;;;;;;9.45;5.00;;;;;;;;;;5094106;27;91008;-69
2022/09/05 03:17:53;;;;;;;12.68;5.28;;;;;;;;;;5078699;27;89138;-71
2022/09/05 03:20:54;;;;;;;9.13;5.15;;;;;;;;;;5092572;27;89803;-71
2022/09/05 03:23:59;;;;;;;8.10;5.00;;;;;;;;;;5026092;27;88981;-70
2022/09/05 03:26:55;;;;;;;8.73;5.35;;;;;;;;;;5023490;27;89252;-69
2022/09/05 03:29:39;;;;;;;14.35;5.47;;;;;;;;;;5014103;27;90030;-69
2022/09/05 03:32:12;;;;;;;7.15;5.20;;;;;;;;;;5019375;28;89309;-69
2022/09/05 03:34:47;;;;;;;9.48;5.45;;;;;;;;;;5022201;27;90054;-69
2022/09/05 03:37:32;;;;;;;13.23;6.22;;;;;;;;;;5028095;28;90414;-69
2022/09/05 03:40:33;;;;;;;11.40;6.05;;;;;;;;;;5026063;27;90224;-69
2022/09/05 03:43:18;;;;;;;7.82;5.50;;;;;;;;;;5008588;28;89884;-69
2022/09/05 03:45:47;;;;;;;11.10;5.85;;;;;;;;;;5027804;27;89324;-69
2022/09/05 03:48:22;;;;;;;9.82;6.35;;;;;;;;;;5027685;28;90266;-69
2022/09/05 03:50:59;;;;;;;9.70;5.80;;;;;;;;;;5024071;27;90305;-69
2022/09/05 03:54:06;;;;;;;9.27;5.95;;;;;;;;;;5028274;28;90948;-69
2022/09/05 03:57:12;;;;;;;8.93;6.15;;;;;;;;;;5000688;27;92355;-69
2022/09/05 04:00:05;;;;;;;10.93;5.50;;;;;;;;;;5071739;27;92100;-69
2022/09/05 04:02:33;;;;;;;12.82;5.68;;;;;;;;;;5055123;27;90701;-69
2022/09/05 04:05:23;;;;;;;8.65;5.70;;;;;;;;;;5071692;27;91686;-69
2022/09/05 04:08:17;;;;;;;9.98;5.97;;;;;;;;;;5074039;27;90319;-69
2022/09/05 04:11:09;;;;;;;13.75;5.38;;;;;;;;;;5092004;27;90054;-69
2022/09/05 04:13:35;;;;;;;9.27;5.78;;;;;;;;;;5080651;27;89874;-69
2022/09/05 04:16:11;;;;;;;8.75;5.97;;;;;;;;;;5071211;27;89460;-69
2022/09/05 04:18:37;;;;;;;9.68;5.15;;;;;;;;;;5091103;27;89897;-69
2022/09/05 04:21:13;;;;;;;8.05;5.88;;;;;;;;;;5091806;27;90069;-71
2022/09/05 04:23:46;;;;;;;8.85;5.55;;;;;;;;;;5091252;27;89316;-69
2022/09/05 04:26:23;;;;;;;9.27;5.30;;;;;;;;;;5091186;27;88601;-69
2022/09/05 04:28:52;;;;;;;12.18;5.70;;;;;;;;;;5073171;27;89140;-69
2022/09/05 04:31:33;;;;;;;11.23;5.63;;;;;;;;;;5082230;27;89132;-69
2022/09/05 04:33:59;;;;;;;12.85;5.68;;;;;;;;;;5090919;27;90151;-69
2022/09/05 04:36:33;;;;;;;12.32;5.70;;;;;;;;;;5090228;27;89057;-69
2022/09/05 04:39:17;;;;;;;9.15;6.40;;;;;;;;;;5089131;27;90789;-69
2022/09/05 04:41:50;;;;;;;10.70;6.22;;;;;;;;;;5093239;27;90040;-71
2022/09/05 04:44:18;;;;;;;10.45;5.80;;;;;;;;;;5088233;27;89078;-69
2022/09/05 04:46:50;;;;;;;12.82;6.22;;;;;;;;;;5078297;27;89804;-69
2022/09/05 18:02:13;;;;;;;7.18;2.63;;;;;;;;;;5015814;28;86465;-70
2022/09/05 18:04:39;;;;;;;13.68;2.58;;;;;;;;;;5004574;28;88625;-70
2022/09/05 18:07:18;;;;;;;5.88;2.20;;;;;;;;;;5009223;28;88568;-70
2022/09/05 18:09:54;;;;;;;8.65;2.88;;;;;;;;;;5003371;28;88685;-70
2022/09/05 18:12:30;;;;;;;5.97;2.58;;;;;;;;;;5002713;28;89094;-72
2022/09/05 18:15:31;;;;;;;8.55;3.03;;;;;;;;;;5003348;28;90751;-69
2022/09/05 18:18:04;;;;;;;6.83;2.53;;;;;;;;;;5003278;28;88548;-70
2022/09/05 18:20:34;;;;;;;12.15;3.22;;;;;;;;;;5000438;28;89018;-70
2022/09/05 18:23:06;;;;;;;11.30;2.67;;;;;;;;;;5009107;28;88304;-70
2022/09/05 18:25:52;;;;;;;12.50;2.70;;;;;;;;;;4983613;28;92010;-70
2022/09/05 18:28:29;;;;;;;9.70;2.78;;;;;;;;;;5000130;28;88425;-70
2022/09/05 18:30:56;;;;;;;15.27;2.47;;;;;;;;;;4998948;28;88509;-70
2022/09/05 18:33:23;;;;;;;9.32;2.90;;;;;;;;;;5003140;28;88758;-71
2022/09/05 18:36:19;;;;;;;9.63;2.78;;;;;;;;;;5002279;28;90662;-70
2022/09/05 18:39:11;;;;;;;13.20;2.67;;;;;;;;;;5019046;28;88820;-70
2022/09/05 18:41:40;;;;;;;11.90;2.70;;;;;;;;;;4936578;28;89604;-70
